This is the latest recevied weather packets stored in our database for station/object OE5RBO. If no packets are shown the sender has not sent any weather packets the latest 10 day(s).
| Time | Temp. | Humidity | Pressure | Rain* | Wind** | Luminosity | Snow |
|---|---|---|---|---|---|---|---|
| 1778176243 | 15° C | 79% | 1014.2 hPa | 0.51 mm | - | - | - |
| 1778175642 | 15.56° C | 78% | 1014 hPa | 0.51 mm | - | - | - |
| 1778175042 | 15.56° C | 78% | 1013.9 hPa | 0.51 mm | - | - | - |
| 1778174442 | 16.11° C | 74% | 1013.8 hPa | 0.51 mm | - | - | - |
| 1778173842 | 16.11° C | 75% | 1013.7 hPa | 0.51 mm | - | - | - |
| 1778173241 | 15.56° C | 78% | 1013.6 hPa | 0.51 mm | - | - | - |
| 1778172040 | 15.56° C | 77% | 1013.6 hPa | 0.51 mm | - | - | - |
| 1778171440 | 15.56° C | 77% | 1013.5 hPa | 0.51 mm | - | - | - |
| 1778170840 | 15.56° C | 75% | 1013.5 hPa | 0.51 mm | - | - | - |
| 1778170239 | 16.11° C | 73% | 1013.5 hPa | 0.51 mm | - | - | - |
| 1778169639 | 16.11° C | 74% | 1013.6 hPa | 0.51 mm | - | - | - |
| 1778169039 | 16.11° C | 75% | 1013.5 hPa | 0.51 mm | - | - | - |
| 1778168438 | 17.78° C | 70% | 1013.5 hPa | 0.51 mm | - | - | - |
| 1778167838 | 17.78° C | 68% | 1013.5 hPa | 0.51 mm | - | - | - |
| 1778167237 | 17.78° C | 69% | 1013.4 hPa | 0.51 mm | - | - | - |
| 1778166637 | 16.67° C | 73% | 1013.4 hPa | 0.51 mm | - | - | - |
| 1778166037 | 17.22° C | 70% | 1013.4 hPa | 0.51 mm | - | - | - |
| 1778164836 | 16.67° C | 71% | 1013.3 hPa | 0.51 mm | - | - | - |
| 1778164236 | 16.67° C | 73% | 1013.4 hPa | 0.51 mm | - | - | - |
| 1778163635 | 17.22° C | 69% | 1013.4 hPa | 0.51 mm | - | - | - |
| 1778163035 | 17.22° C | 70% | 1013.5 hPa | 0.51 mm | - | - | - |
| 1778162434 | 17.22° C | 74% | 1013.4 hPa | 0.51 mm | - | - | - |
| 1778161834 | 16.67° C | 78% | 1013.3 hPa | 0.51 mm | - | - | - |
| 1778160634 | 16.11° C | 84% | 1013.3 hPa | 0.51 mm | - | - | - |
| 1778159433 | 14.44° C | 87% | 1013.5 hPa | 0.51 mm | - | - | - |
* Rain since midnight (hover to see other rain measurements)
** Current wind speed in m/s (hover to see current wind gust speed)